Flight Track Log - Related Links

Times and Time Zones

All times are in EDT time to prevent confusion due to time zone crossing. See the N911MN flight status page for this flight to view local times or setup timezone preferences in your user account.

Time Position Orientation Groundspeed Altitude Reporting Facility
EDT Latitude Longitude Course Direction KTS MPH feet Rate Location/Type
Tue 06:59:17 AM 43.4667 -94.8486 277° West 165 190 5,300  Level Minneapolis Center
Tue 07:01:00 AM 43.4759 -94.9829 281° West  Level Estimated
Tue 07:04:00 AM 43.4383 -95.1211 277° West  Level FlightAware Approximate
Tue 07:08:00 AM 43.4696 -95.5282 289° West  Level FlightAware Approximate
Tue 07:09:00 AM 43.4833 -95.6036 270° West  Level FlightAware Approximate
Tue 07:10:00 AM 43.4833 -95.6822 270° West  Level FlightAware Approximate
Tue 07:11:00 AM 43.4875 -95.7602 282° West  Level FlightAware Approximate
Tue 07:12:00 AM 43.4994 -95.8372 282° West  Level FlightAware Approximate
Tue 07:13:00 AM 43.5112 -95.9141 282° West  Level FlightAware Approximate
Tue 07:14:00 AM 43.5167 -95.9920 270° West  Level FlightAware Approximate
Tue 07:15:00 AM 43.5205 -96.0704 276° West  Level FlightAware Approximate
Tue 07:16:00 AM 43.5261 -96.1486 276° West  Level FlightAware Approximate
Tue 07:17:00 AM 43.5317 -96.2269 276° West  Level FlightAware Approximate
Tue 07:18:00 AM 43.5373 -96.3052 276° West  Level FlightAware Approximate
Tue 07:19:00 AM 43.5429 -96.3836 276° West  Level FlightAware Approximate
Tue 07:20:00 AM 43.5485 -96.4619 276° West  Level FlightAware Approximate
Tue 07:21:00 AM 43.5566 -96.5394 283° West  Level FlightAware Approximate
Tue 07:22:00 AM 43.5667 -96.6166 270° West  Level FlightAware Approximate
Tue 07:23:00 AM 43.5667 -96.6953 270° West  Level FlightAware Approximate
Tue 07:24:00 AM 43.5667 -96.7333 270° West  Level FlightAware Approximate
Tue 07:25:00 AM 43.5820 -96.7419 270° West  Level Estimated
Tue 07:26:00 AM 43.5820 -96.7419 270° West  Level Estimated
Tue 07:27:00 AM 43.5820 -96.7419 270° West  Level Estimated
Tue 07:28:00 AM 43.5820 -96.7419 270° West  Level Estimated
Tue 07:29:00 AM 43.5820 -96.7419 270° West  Level Estimated
Tue 07:30:00 AM 43.5820 -96.7419 270° West  Level Estimated
Tue 07:31:00 AM 43.5820 -96.7419 270° West  Level Estimated
Tue 07:32:00 AM 43.5820 -96.7419 270° West  Level Estimated
Tue 07:33:00 AM 43.5820 -96.7419 270° West  Level Estimated
Tue 07:34:00 AM 43.5820 -96.7419 270° West  Level Estimated
Tue 07:35:00 AM 43.5820 -96.7419 270° West  Level Estimated
Tue 07:36:00 AM 43.5820 -96.7419 270° West  Level Estimated
Tue 07:37:00 AM 43.5820 -96.7419 270° West  Level Estimated
Tue 07:38:00 AM 43.5820 -96.7419 270° West  Level Estimated
Tue 07:39:00 AM 43.5820 -96.7419 270° West  Level Estimated
Tue 07:40:00 AM 43.5820 -96.7419 270° West  Level Estimated

Login

Don't have an account? Register now (free) for customized features, flight alerts, and more!